createdAt,value
2019-01-09T00:01:36.614Z,3.17
2019-01-09T00:04:16.218Z,3.42
2019-01-09T00:06:56.347Z,3.25
2019-01-09T00:09:36.573Z,2.60
2019-01-09T00:12:16.535Z,2.90
2019-01-09T00:14:56.342Z,3.27
2019-01-09T00:17:36.539Z,3.20
2019-01-09T00:20:16.614Z,3.37
2019-01-09T00:22:56.977Z,3.30
2019-01-09T00:25:37.302Z,3.27
2019-01-09T00:28:17.378Z,3.70
2019-01-09T00:30:56.974Z,2.62
2019-01-09T00:33:37.225Z,2.85
2019-01-09T00:36:16.765Z,2.72
2019-01-09T00:38:57.489Z,3.25
2019-01-09T00:41:25.184Z,2.85
2019-01-09T00:44:12.046Z,3.05
2019-01-09T00:46:58.858Z,2.40
2019-01-09T00:49:45.708Z,3.00
2019-01-09T00:52:33.092Z,2.05
2019-01-09T00:55:20.521Z,1.80
2019-01-09T00:58:07.978Z,1.62
2019-01-09T01:00:55.303Z,1.82
2019-01-09T01:04:01.646Z,2.08
2019-01-09T01:07:08.320Z,2.05
2019-01-09T01:10:14.643Z,2.20
2019-01-09T01:13:21.275Z,2.35
2019-01-09T01:16:01.201Z,2.30
2019-01-09T01:21:54.288Z,2.45
2019-01-09T01:24:34.624Z,1.82
2019-01-09T01:27:14.687Z,2.12
2019-01-09T01:29:54.951Z,2.22
2019-01-09T01:32:34.503Z,3.08
2019-01-09T01:35:15.026Z,2.42
2019-01-09T01:37:54.778Z,2.20
2019-01-09T01:40:35.070Z,2.42
2019-01-09T01:43:15.278Z,2.40
2019-01-09T01:45:55.426Z,2.20
2019-01-09T01:48:35.415Z,2.70
2019-01-09T01:51:14.933Z,2.37
2019-01-09T01:53:55.230Z,3.40
2019-01-09T01:56:35.215Z,2.40
2019-01-09T01:59:15.266Z,2.42
2019-01-09T02:01:55.622Z,2.65
2019-01-09T02:04:35.738Z,2.22
2019-01-09T02:07:16.202Z,2.50
2019-01-09T02:09:56.625Z,2.22
2019-01-09T02:12:36.287Z,2.80
2019-01-09T02:15:16.874Z,3.05
2019-01-09T02:17:56.890Z,3.55
2019-01-09T02:20:36.726Z,3.15
2019-01-09T02:23:17.045Z,2.62
2019-01-09T02:25:57.460Z,2.90
2019-01-09T02:28:37.038Z,2.50
2019-01-09T02:31:17.497Z,2.77
2019-01-09T02:33:57.803Z,2.30
2019-01-09T02:36:37.419Z,2.92
2019-01-09T02:39:18.722Z,2.33
2019-01-09T02:41:46.345Z,3.30
2019-01-09T02:44:33.453Z,2.67
2019-01-09T02:47:20.150Z,2.75
2019-01-09T02:50:07.094Z,2.40
2019-01-09T02:52:53.901Z,2.27
2019-01-09T02:55:41.226Z,2.15
2019-01-09T02:58:28.124Z,2.35
2019-01-09T03:01:15.242Z,1.47
2019-01-09T03:04:02.065Z,1.82
2019-01-09T03:06:48.854Z,2.65
2019-01-09T03:09:35.557Z,1.70
2019-01-09T03:12:22.342Z,1.72
2019-01-09T03:15:09.393Z,2.17
2019-01-09T03:17:49.046Z,1.50
2019-01-09T03:20:29.171Z,1.50
2019-01-09T03:23:09.338Z,1.52
2019-01-09T03:25:49.239Z,1.60
2019-01-09T03:28:29.337Z,1.20
2019-01-09T03:31:09.451Z,1.27
2019-01-09T03:33:49.792Z,1.57
2019-01-09T03:36:33.032Z,1.17
2019-01-09T03:42:19.215Z,0.93
2019-01-09T03:44:59.246Z,1.95
2019-01-09T03:47:39.386Z,1.10
2019-01-09T03:50:19.341Z,1.57
2019-01-09T03:52:59.795Z,1.17
2019-01-09T03:55:39.593Z,0.80
2019-01-09T03:58:19.387Z,1.00
2019-01-09T04:00:59.526Z,1.40
2019-01-09T04:03:39.177Z,0.80
2019-01-09T04:06:19.370Z,1.25
2019-01-09T04:08:59.357Z,0.80
2019-01-09T04:11:39.548Z,1.20
2019-01-09T04:14:19.297Z,1.10
2019-01-09T04:16:59.505Z,1.37
2019-01-09T04:19:39.801Z,1.05
2019-01-09T04:22:19.638Z,1.10
2019-01-09T04:24:59.666Z,1.37
2019-01-09T04:27:39.764Z,1.20
2019-01-09T04:30:20.158Z,1.02
2019-01-09T04:32:59.955Z,1.00
2019-01-09T04:35:40.095Z,1.45
2019-01-09T04:38:20.079Z,1.00
2019-01-09T04:41:00.156Z,1.95
2019-01-09T04:43:40.078Z,1.85
2019-01-09T04:46:20.365Z,1.60
2019-01-09T04:49:00.363Z,1.67
2019-01-09T04:51:40.364Z,1.92
2019-01-09T04:54:20.763Z,1.55
2019-01-09T04:57:00.654Z,1.60
2019-01-09T04:59:40.728Z,1.17
2019-01-09T05:02:20.622Z,1.22
2019-01-09T05:05:00.616Z,2.65
2019-01-09T05:07:40.614Z,1.37
2019-01-09T05:10:21.328Z,1.52
2019-01-09T05:13:01.206Z,2.17
2019-01-09T05:15:41.707Z,1.90
2019-01-09T05:18:21.373Z,2.30
2019-01-09T05:21:01.369Z,2.17
2019-01-09T05:23:41.324Z,1.90
2019-01-09T05:26:21.555Z,1.60
2019-01-09T05:29:01.625Z,1.80
2019-01-09T05:31:41.914Z,2.05
2019-01-09T05:34:21.923Z,1.32
2019-01-09T05:37:09.456Z,1.85
2019-01-09T05:39:44.321Z,1.42
2019-01-09T05:42:24.322Z,2.00
2019-01-09T05:45:03.993Z,1.70
2019-01-09T05:47:44.130Z,1.77
2019-01-09T05:50:24.226Z,1.85
2019-01-09T05:53:04.090Z,2.17
2019-01-09T05:55:44.107Z,1.20
2019-01-09T05:58:24.081Z,1.67
2019-01-09T06:01:04.450Z,1.50
2019-01-09T06:03:44.268Z,1.05
2019-01-09T06:06:24.355Z,1.75
2019-01-09T06:09:05.682Z,1.82
2019-01-09T06:11:45.286Z,1.52
2019-01-09T06:14:25.792Z,1.60
2019-01-09T06:17:05.903Z,2.30
2019-01-09T06:19:45.828Z,1.42
2019-01-09T06:22:26.250Z,1.50
2019-01-09T06:25:06.212Z,2.05
2019-01-09T06:27:46.483Z,1.60
2019-01-09T06:33:45.750Z,1.40
2019-01-09T06:39:31.353Z,1.37
2019-01-09T06:42:11.053Z,1.98
2019-01-09T06:44:51.173Z,1.75
2019-01-09T06:50:39.688Z,1.87
2019-01-09T06:53:19.497Z,2.20
2019-01-09T06:55:59.963Z,2.47
2019-01-09T06:58:40.178Z,1.87
2019-01-09T07:01:20.059Z,1.30
2019-01-09T07:04:00.662Z,2.67
2019-01-09T07:06:40.410Z,1.92
2019-01-09T07:09:20.350Z,1.40
2019-01-09T07:12:00.223Z,2.12
2019-01-09T07:14:40.761Z,2.15
2019-01-09T07:17:20.590Z,2.35
2019-01-09T07:20:00.602Z,2.67
2019-01-09T07:22:40.957Z,2.10
2019-01-09T07:25:20.443Z,2.80
2019-01-09T07:28:00.361Z,2.17
2019-01-09T07:30:40.393Z,2.30
2019-01-09T07:33:20.406Z,2.47
2019-01-09T07:36:01.131Z,2.58
2019-01-09T07:38:40.582Z,2.47
2019-01-09T07:41:20.835Z,2.30
2019-01-09T07:44:01.228Z,2.50
2019-01-09T07:46:41.079Z,2.50
2019-01-09T07:49:21.310Z,2.00
2019-01-09T07:52:01.174Z,2.20
2019-01-09T07:54:41.964Z,1.90
2019-01-09T07:57:21.727Z,1.57
2019-01-09T08:00:02.181Z,2.42
2019-01-09T08:02:42.042Z,1.90
2019-01-09T08:05:22.062Z,1.67
2019-01-09T08:08:01.862Z,1.95
2019-01-09T08:10:42.145Z,2.40
2019-01-09T08:13:21.983Z,1.72
2019-01-09T08:16:02.110Z,2.10
2019-01-09T08:18:42.418Z,1.75
2019-01-09T08:21:22.124Z,2.55
2019-01-09T08:24:02.287Z,1.70
2019-01-09T08:26:42.476Z,1.60
2019-01-09T08:29:22.701Z,1.47
2019-01-09T08:32:02.698Z,1.57
2019-01-09T08:34:43.064Z,1.40
2019-01-09T08:37:23.366Z,2.25
2019-01-09T08:40:03.843Z,2.25
2019-01-09T08:42:44.190Z,2.30
2019-01-09T08:45:24.514Z,1.90
2019-01-09T08:48:04.536Z,2.55
2019-01-09T08:50:44.651Z,1.60
2019-01-09T08:56:32.908Z,1.85
2019-01-09T08:59:13.106Z,1.90
2019-01-09T09:01:53.005Z,1.72
2019-01-09T09:04:32.886Z,1.92
2019-01-09T09:07:12.750Z,1.85
2019-01-09T09:09:52.966Z,1.00
2019-01-09T09:12:33.069Z,1.92
2019-01-09T09:15:12.527Z,2.20
2019-01-09T09:17:52.560Z,2.52
2019-01-09T09:20:32.685Z,1.60
2019-01-09T09:26:17.969Z,1.42
2019-01-09T09:28:57.761Z,2.20
2019-01-09T09:31:37.610Z,1.40
2019-01-09T09:34:18.298Z,1.80
2019-01-09T09:36:58.269Z,1.92
2019-01-09T09:39:38.003Z,1.50
2019-01-09T09:42:18.450Z,1.67
2019-01-09T09:44:58.165Z,1.90
2019-01-09T09:47:38.322Z,1.57
2019-01-09T09:50:18.502Z,2.20
2019-01-09T09:52:58.938Z,2.15
2019-01-09T09:55:39.135Z,1.30
2019-01-09T09:58:18.877Z,1.45
2019-01-09T10:03:38.897Z,1.70
2019-01-09T10:06:19.072Z,1.40
2019-01-09T10:08:59.402Z,1.70
2019-01-09T10:11:39.068Z,1.72
2019-01-09T10:17:24.223Z,1.75
2019-01-09T10:20:04.603Z,2.72
2019-01-09T10:26:04.050Z,1.80
2019-01-09T10:28:43.786Z,1.80
2019-01-09T10:31:24.061Z,1.30
2019-01-09T10:34:04.342Z,2.08
2019-01-09T10:39:52.964Z,1.67
2019-01-09T10:42:33.298Z,1.60
2019-01-09T10:45:13.090Z,2.20
2019-01-09T10:47:53.210Z,2.25
2019-01-09T10:50:33.430Z,1.60
2019-01-09T10:53:13.335Z,2.08
2019-01-09T10:55:53.787Z,1.95
2019-01-09T10:58:33.381Z,1.95
2019-01-09T11:01:13.360Z,1.45
2019-01-09T11:03:53.521Z,1.85
2019-01-09T11:06:33.978Z,1.72
2019-01-09T11:09:01.454Z,1.85
2019-01-09T11:11:48.603Z,2.10
2019-01-09T11:14:35.298Z,1.40
2019-01-09T11:17:15.853Z,2.55
2019-01-09T11:19:55.607Z,2.10
2019-01-09T11:22:36.181Z,2.50
2019-01-09T11:28:35.166Z,2.10
2019-01-09T11:31:15.390Z,2.77
2019-01-09T11:33:55.602Z,3.08
2019-01-09T11:36:35.203Z,1.65
2019-01-09T11:42:34.928Z,2.60
2019-01-09T11:45:15.215Z,2.52
2019-01-09T11:47:55.515Z,2.02
2019-01-09T11:50:35.849Z,2.35
2019-01-09T11:53:15.291Z,2.60
2019-01-09T11:55:56.075Z,2.50
2019-01-09T12:01:41.359Z,2.33
2019-01-09T12:04:21.154Z,1.87
2019-01-09T12:07:01.534Z,2.12
2019-01-09T12:09:41.894Z,2.20
2019-01-09T12:12:21.653Z,1.70
2019-01-09T12:15:01.913Z,1.50
2019-01-09T12:17:42.106Z,1.75
2019-01-09T12:20:22.188Z,1.95
2019-01-09T12:23:02.307Z,1.87
2019-01-09T12:25:42.131Z,2.08
2019-01-09T12:31:27.458Z,1.45
2019-01-09T12:34:07.557Z,2.33
2019-01-09T12:36:47.598Z,2.22
2019-01-09T12:39:27.909Z,1.40
2019-01-09T12:42:08.306Z,2.67
2019-01-09T12:44:48.323Z,2.12
2019-01-09T12:47:28.336Z,2.40
2019-01-09T12:50:08.633Z,2.05
2019-01-09T12:52:48.952Z,2.30
2019-01-09T12:55:28.545Z,2.22
2019-01-09T12:58:09.106Z,2.42
2019-01-09T13:00:49.035Z,2.30
2019-01-09T13:03:29.195Z,1.67
2019-01-09T13:06:09.822Z,2.33
2019-01-09T13:08:49.337Z,1.92
2019-01-09T13:11:29.942Z,1.87
2019-01-09T13:14:09.906Z,2.25
2019-01-09T13:16:50.130Z,2.33
2019-01-09T13:19:30.047Z,1.90
2019-01-09T13:22:10.419Z,2.20
2019-01-09T13:24:50.921Z,1.90
2019-01-09T13:27:30.502Z,1.62
2019-01-09T13:30:10.564Z,2.37
2019-01-09T13:32:50.155Z,2.08
2019-01-09T13:35:30.613Z,2.12
2019-01-09T13:38:10.998Z,2.10
2019-01-09T13:40:50.600Z,2.10
2019-01-09T13:46:49.978Z,2.30
2019-01-09T13:49:30.150Z,2.15
2019-01-09T13:55:18.571Z,1.75
2019-01-09T13:57:58.580Z,2.20
2019-01-09T14:00:38.727Z,1.80
2019-01-09T14:03:18.583Z,2.27
2019-01-09T14:05:59.194Z,2.02
2019-01-09T14:08:39.174Z,1.92
2019-01-09T14:11:19.228Z,1.95
2019-01-09T14:13:59.822Z,1.85
2019-01-09T14:16:39.712Z,2.30
2019-01-09T14:19:19.750Z,1.80
2019-01-09T14:22:00.053Z,2.80
2019-01-09T14:24:39.974Z,2.20
2019-01-09T14:27:19.738Z,2.00
2019-01-09T14:29:59.951Z,2.52
2019-01-09T14:35:47.945Z,2.30
2019-01-09T14:38:28.467Z,2.20
2019-01-09T14:41:08.897Z,1.77
2019-01-09T14:50:13.133Z,2.35
2019-01-09T14:52:53.734Z,1.52
2019-01-09T14:55:33.559Z,1.75
2019-01-09T15:01:18.935Z,1.42
2019-01-09T15:03:58.485Z,1.62
2019-01-09T15:06:58.137Z,2.20
2019-01-09T15:09:38.681Z,1.52
2019-01-09T15:12:19.093Z,1.77
2019-01-09T15:14:59.211Z,1.90
2019-01-09T15:17:39.214Z,1.45
2019-01-09T15:20:19.119Z,2.55
2019-01-09T15:22:59.014Z,1.67
2019-01-09T15:28:58.363Z,1.40
2019-01-09T15:31:38.347Z,2.35
2019-01-09T15:34:17.966Z,2.37
2019-01-09T15:36:58.230Z,1.67
2019-01-09T15:39:37.932Z,1.42
2019-01-09T15:42:18.337Z,2.10
2019-01-09T15:44:58.477Z,1.95
2019-01-09T15:47:38.356Z,1.95
2019-01-09T15:50:18.134Z,2.45
2019-01-09T15:52:58.477Z,2.17
2019-01-09T15:55:38.898Z,2.37
2019-01-09T15:58:18.795Z,2.15
2019-01-09T16:00:58.750Z,2.02
2019-01-09T16:03:39.165Z,1.70
2019-01-09T16:06:19.130Z,2.15
2019-01-09T16:08:58.966Z,1.45
2019-01-09T16:11:39.158Z,1.90
2019-01-09T16:14:18.878Z,1.95
2019-01-09T16:16:59.559Z,2.20
2019-01-09T16:19:39.416Z,1.82
2019-01-09T16:22:19.590Z,2.80
2019-01-09T16:24:59.380Z,1.98
2019-01-09T16:27:39.610Z,1.55
2019-01-09T16:30:19.543Z,2.42
2019-01-09T16:32:59.954Z,1.90
2019-01-09T16:35:39.914Z,2.35
2019-01-09T16:38:20.079Z,2.45
2019-01-09T16:40:59.479Z,2.17
2019-01-09T16:43:40.114Z,2.25
2019-01-09T16:46:20.258Z,2.70
2019-01-09T16:48:59.966Z,2.00
2019-01-09T16:51:39.898Z,1.95
2019-01-09T16:54:20.305Z,3.60
2019-01-09T16:57:00.841Z,2.50
2019-01-09T16:59:40.767Z,2.12
2019-01-09T17:02:21.144Z,2.40
2019-01-09T17:05:01.362Z,2.55
2019-01-09T17:07:40.970Z,1.92
2019-01-09T17:10:21.397Z,2.50
2019-01-09T17:13:01.606Z,1.50
2019-01-09T17:15:41.963Z,1.72
2019-01-09T17:18:21.847Z,1.82
2019-01-09T17:21:02.082Z,1.92
2019-01-09T17:23:42.331Z,2.95
2019-01-09T17:26:22.778Z,2.55
2019-01-09T17:29:02.470Z,1.90
2019-01-09T17:31:42.746Z,2.42
2019-01-09T17:34:22.877Z,3.52
2019-01-09T17:37:02.766Z,2.50
2019-01-09T17:39:42.891Z,3.02
2019-01-09T17:42:23.252Z,2.70
2019-01-09T17:45:03.153Z,2.90
2019-01-09T17:47:43.233Z,2.90
2019-01-09T17:50:23.533Z,3.00
2019-01-09T17:53:03.673Z,2.60
2019-01-09T17:55:43.671Z,2.02
2019-01-09T18:01:32.229Z,2.77
2019-01-09T18:04:12.687Z,2.42
2019-01-09T18:06:52.966Z,3.05
2019-01-09T18:09:32.789Z,2.85
2019-01-09T18:12:00.610Z,2.70
2019-01-09T18:14:49.966Z,2.77
2019-01-09T18:17:30.716Z,2.42
2019-01-09T18:20:10.871Z,2.75
2019-01-09T18:22:51.018Z,2.40
2019-01-09T18:25:31.301Z,3.00
2019-01-09T18:28:11.018Z,2.33
2019-01-09T18:30:51.225Z,3.15
2019-01-09T18:33:31.378Z,3.17
2019-01-09T18:36:11.491Z,3.80
2019-01-09T18:38:51.682Z,3.20
2019-01-09T18:41:31.748Z,2.75
2019-01-09T18:44:11.736Z,3.25
2019-01-09T18:46:51.851Z,3.12
2019-01-09T18:49:32.334Z,3.05
2019-01-09T18:52:12.263Z,2.80
2019-01-09T18:54:52.876Z,3.45
2019-01-09T18:57:33.141Z,3.40
2019-01-09T19:00:13.217Z,3.10
2019-01-09T19:02:53.270Z,3.12
2019-01-09T19:05:34.799Z,2.87
2019-01-09T19:08:14.630Z,2.90
2019-01-09T19:10:55.002Z,4.08
2019-01-09T19:13:34.641Z,4.40
2019-01-09T19:16:14.831Z,3.92
2019-01-09T19:18:55.059Z,4.10
2019-01-09T19:21:35.125Z,3.35
2019-01-09T19:24:15.178Z,4.10
2019-01-09T19:26:55.299Z,3.27
2019-01-09T19:29:35.473Z,3.95
2019-01-09T19:32:15.924Z,3.08
2019-01-09T19:34:56.174Z,2.90
2019-01-09T19:37:36.917Z,3.00
2019-01-09T19:40:16.794Z,3.20
2019-01-09T19:42:59.767Z,3.12
2019-01-09T19:45:40.171Z,2.85
2019-01-09T19:48:20.465Z,3.80
2019-01-09T19:51:00.370Z,2.75
2019-01-09T19:53:40.660Z,3.52
2019-01-09T19:56:20.606Z,3.37
2019-01-09T19:59:00.977Z,2.50
2019-01-09T20:01:41.162Z,2.50
2019-01-09T20:04:21.953Z,3.10
2019-01-09T20:07:01.911Z,3.27
2019-01-09T20:12:34.507Z,3.25
2019-01-09T20:15:21.698Z,3.05
2019-01-09T20:18:29.906Z,3.90
2019-01-09T20:21:17.277Z,2.72
2019-01-09T20:24:04.481Z,3.05
2019-01-09T20:26:51.828Z,3.15
2019-01-09T20:29:38.870Z,2.70
2019-01-09T20:32:26.010Z,3.05
2019-01-09T20:35:13.429Z,2.55
2019-01-09T20:38:00.886Z,3.50
2019-01-09T20:40:48.347Z,3.58
2019-01-09T20:43:35.522Z,2.85
2019-01-09T20:46:22.528Z,3.98
2019-01-09T20:49:09.745Z,3.02
2019-01-09T20:51:56.914Z,3.20
2019-01-09T20:54:43.946Z,3.40
2019-01-09T20:57:30.989Z,3.40
2019-01-09T21:00:19.594Z,3.20
2019-01-09T21:03:08.425Z,2.75
2019-01-09T21:05:41.846Z,3.20
2019-01-09T21:08:28.714Z,3.00
2019-01-09T21:11:15.762Z,3.25
2019-01-09T21:14:03.245Z,3.75
2019-01-09T21:16:30.541Z,3.00
2019-01-09T21:19:17.647Z,3.70
2019-01-09T21:22:04.441Z,3.50
2019-01-09T21:24:51.251Z,3.80
2019-01-09T21:27:42.197Z,3.60
2019-01-09T21:30:27.029Z,3.40
2019-01-09T21:36:12.910Z,3.40
2019-01-09T21:39:00.367Z,3.30
2019-01-09T21:41:53.328Z,4.50
2019-01-09T21:44:35.898Z,3.75
2019-01-09T21:47:22.464Z,3.67
2019-01-09T21:50:09.877Z,4.20
2019-01-09T21:52:57.085Z,4.50
2019-01-09T21:55:44.082Z,3.40
2019-01-09T21:58:30.900Z,3.50
2019-01-09T22:01:18.219Z,4.33
2019-01-09T22:04:05.243Z,3.50
2019-01-09T22:06:52.118Z,3.90
2019-01-09T22:09:39.270Z,3.30
2019-01-09T22:12:26.305Z,4.10
2019-01-09T22:15:13.715Z,3.83
2019-01-09T22:17:53.771Z,4.37
2019-01-09T22:20:33.493Z,4.67
2019-01-09T22:23:13.955Z,4.33
2019-01-09T22:25:54.405Z,4.35
2019-01-09T22:28:34.398Z,4.72
2019-01-09T22:31:14.440Z,4.55
2019-01-09T22:33:55.062Z,4.90
2019-01-09T22:36:34.774Z,4.47
2019-01-09T22:39:14.748Z,4.30
2019-01-09T22:41:42.515Z,6.62
2019-01-09T22:44:29.410Z,5.55
2019-01-09T22:47:16.481Z,5.15
2019-01-09T22:53:18.426Z,5.37
2019-01-09T22:56:05.705Z,5.40
2019-01-09T22:58:53.227Z,5.47
2019-01-09T23:01:40.244Z,5.85
2019-01-09T23:04:27.254Z,5.80
2019-01-09T23:07:14.099Z,5.30
2019-01-09T23:10:01.093Z,6.00
2019-01-09T23:12:48.450Z,6.00
2019-01-09T23:15:35.538Z,5.90
2019-01-09T23:18:43.900Z,5.85
2019-01-09T23:21:33.123Z,6.15
2019-01-09T23:24:20.013Z,5.75
2019-01-09T23:27:07.237Z,4.95
2019-01-09T23:29:54.679Z,5.47
2019-01-09T23:32:41.577Z,4.60
2019-01-09T23:35:28.363Z,4.58
2019-01-09T23:38:15.184Z,4.15
2019-01-09T23:41:02.084Z,4.40
2019-01-09T23:43:49.530Z,4.47
2019-01-09T23:46:36.347Z,4.40
2019-01-09T23:49:23.056Z,4.87
2019-01-09T23:52:09.771Z,4.25
2019-01-09T23:54:56.782Z,4.20
2019-01-09T23:57:44.204Z,4.35
